Time;durP1;ratioP1;P1;durP2;ratioP2;P2;SDS_P1;SDS_P2;PMS_P1;PMS_P2;Temp;Humidity;BMP_temperature;BMP_pressure;BME280_temperature;BME280_humidity;BME280_pressure;Samples;Min_cycle;Max_cycle;Signal;HPM_P1;HPM_P2
2021/05/11 00:00:59;;;;;;;2.40;2.30;;;;;;;;;;5053029;28;20459;-54
2021/05/11 00:03:24;;;;;;;2.93;2.70;;;;;;;;;;5052936;28;20834;-54
2021/05/11 00:05:50;;;;;;;2.60;2.40;;;;;;;;;;5052902;28;20372;-54
2021/05/11 00:08:16;;;;;;;3.70;2.73;;;;;;;;;;5051807;28;20780;-54
2021/05/11 00:10:42;;;;;;;2.80;2.53;;;;;;;;;;5052894;28;20405;-54
2021/05/11 00:13:08;;;;;;;2.93;2.63;;;;;;;;;;5051515;28;20405;-54
2021/05/11 00:15:34;;;;;;;2.63;2.47;;;;;;;;;;5052998;28;20573;-55
2021/05/11 00:18:00;;;;;;;2.60;2.50;;;;;;;;;;5052804;28;20399;-54
2021/05/11 00:20:26;;;;;;;2.80;2.60;;;;;;;;;;5052762;28;20459;-54
2021/05/11 00:22:52;;;;;;;3.20;2.97;;;;;;;;;;5052393;28;20948;-54
2021/05/11 00:25:18;;;;;;;2.80;2.60;;;;;;;;;;5052732;28;20451;-54
2021/05/11 00:27:44;;;;;;;3.20;2.90;;;;;;;;;;5052376;28;20745;-55
2021/05/11 00:30:11;;;;;;;4.77;2.93;;;;;;;;;;5052586;28;20437;-54
2021/05/11 00:32:37;;;;;;;3.60;3.40;;;;;;;;;;5052262;28;20401;-54
2021/05/11 00:35:03;;;;;;;2.90;2.77;;;;;;;;;;5052430;28;20416;-55
2021/05/11 00:37:29;;;;;;;5.83;3.10;;;;;;;;;;5052555;28;20417;-55
2021/05/11 00:39:55;;;;;;;3.90;3.50;;;;;;;;;;5052562;28;20383;-55
2021/05/11 00:42:21;;;;;;;3.63;3.43;;;;;;;;;;5051963;28;20445;-54
2021/05/11 00:44:47;;;;;;;3.80;3.50;;;;;;;;;;5052346;28;20400;-54
2021/05/11 00:47:12;;;;;;;8.70;4.00;;;;;;;;;;5052067;28;20443;-55
2021/05/11 00:49:38;;;;;;;4.37;4.03;;;;;;;;;;5052072;28;20408;-54
2021/05/11 00:52:06;;;;;;;5.37;4.10;;;;;;;;;;5052261;28;20406;-54
2021/05/11 00:54:32;;;;;;;4.37;4.07;;;;;;;;;;5050723;28;20871;-54
2021/05/11 00:56:59;;;;;;;4.77;4.47;;;;;;;;;;5052198;28;20486;-54
2021/05/11 00:59:29;;;;;;;6.10;4.50;;;;;;;;;;5051960;28;20763;-54
2021/05/11 01:01:56;;;;;;;7.50;4.33;;;;;;;;;;5050398;28;20460;-54
2021/05/11 01:04:22;;;;;;;6.60;4.17;;;;;;;;;;5051340;28;20401;-55
2021/05/11 01:06:48;;;;;;;4.10;3.80;;;;;;;;;;5051321;28;20417;-54
2021/05/11 01:09:14;;;;;;;5.20;4.00;;;;;;;;;;5050987;28;20490;-54
2021/05/11 01:11:40;;;;;;;4.93;4.57;;;;;;;;;;5051482;28;20441;-55
2021/05/11 01:14:06;;;;;;;5.10;4.60;;;;;;;;;;5051531;28;20879;-54
2021/05/11 01:16:33;;;;;;;5.63;4.50;;;;;;;;;;5051558;28;20432;-54
2021/05/11 01:19:11;;;;;;;4.50;4.20;;;;;;;;;;5051768;28;20497;-54
2021/05/11 01:46:01;;;;;;;4.93;4.33;;;;;;;;;;5051317;28;20428;-54
2021/05/11 01:51:22;;;;;;;8.10;4.40;;;;;;;;;;5050941;28;20830;-55
2021/05/11 01:54:12;;;;;;;4.47;4.17;;;;;;;;;;5050998;28;20811;-54
2021/05/11 02:09:44;;;;;;;3.90;3.60;;;;;;;;;;5050836;28;20433;-54
2021/05/11 02:23:30;;;;;;;4.10;3.77;;;;;;;;;;5050944;28;20738;-54
2021/05/11 02:25:56;;;;;;;3.77;3.50;;;;;;;;;;5050442;28;20964;-54
2021/05/11 02:28:23;;;;;;;4.10;3.80;;;;;;;;;;5050680;28;20360;-54
2021/05/11 02:30:49;;;;;;;4.90;3.90;;;;;;;;;;5050458;28;20389;-54
2021/05/11 02:33:15;;;;;;;4.13;3.73;;;;;;;;;;5050435;28;20749;-55
2021/05/11 02:35:41;;;;;;;4.03;3.80;;;;;;;;;;5050458;28;20429;-54
2021/05/11 02:38:07;;;;;;;8.93;5.77;;;;;;;;;;5050461;28;20424;-54
2021/05/11 02:40:33;;;;;;;3.83;3.63;;;;;;;;;;5050444;28;20801;-54
2021/05/11 02:43:03;;;;;;;3.93;3.50;;;;;;;;;;5050159;28;20428;-54
2021/05/11 02:45:31;;;;;;;4.10;3.80;;;;;;;;;;5050467;28;20764;-54
2021/05/11 02:47:56;;;;;;;4.07;3.77;;;;;;;;;;5050275;28;20863;-54
2021/05/11 02:50:24;;;;;;;4.13;3.80;;;;;;;;;;5050268;28;20484;-54
2021/05/11 02:52:50;;;;;;;4.00;3.70;;;;;;;;;;5050171;28;20409;-54
2021/05/11 02:55:17;;;;;;;4.30;3.90;;;;;;;;;;5050314;28;20408;-54
2021/05/11 02:57:43;;;;;;;4.00;3.77;;;;;;;;;;5050118;28;20421;-54
2021/05/11 03:00:10;;;;;;;3.97;3.77;;;;;;;;;;5050198;28;20400;-54
2021/05/11 03:02:36;;;;;;;4.20;3.90;;;;;;;;;;5050171;28;20452;-54
2021/05/11 03:05:03;;;;;;;4.73;4.33;;;;;;;;;;5050371;28;20488;-54
2021/05/11 03:07:29;;;;;;;4.57;4.27;;;;;;;;;;5050019;28;20798;-54
2021/05/11 03:09:55;;;;;;;4.70;4.40;;;;;;;;;;5049939;28;20488;-54
2021/05/11 03:12:21;;;;;;;4.77;4.37;;;;;;;;;;5049830;28;20951;-54
2021/05/11 03:14:47;;;;;;;4.40;4.10;;;;;;;;;;5050053;28;20749;-54
2021/05/11 03:17:13;;;;;;;5.27;4.77;;;;;;;;;;5049999;28;20471;-54
2021/05/11 03:19:39;;;;;;;4.37;4.07;;;;;;;;;;5049963;28;20408;-54
2021/05/11 03:22:07;;;;;;;6.10;4.67;;;;;;;;;;5049699;28;20859;-54
2021/05/11 03:24:35;;;;;;;10.03;4.80;;;;;;;;;;5050124;28;20488;-54
2021/05/11 03:27:00;;;;;;;4.03;3.70;;;;;;;;;;5053267;28;20547;-54
2021/05/11 03:29:26;;;;;;;5.23;4.83;;;;;;;;;;5053544;28;20960;-54
2021/05/11 03:31:52;;;;;;;4.80;4.50;;;;;;;;;;5053375;28;20416;-54
2021/05/11 03:34:18;;;;;;;4.93;4.63;;;;;;;;;;5053621;28;20778;-54
2021/05/11 03:36:44;;;;;;;5.10;4.70;;;;;;;;;;5053841;28;20857;-54
2021/05/11 03:39:10;;;;;;;4.57;4.27;;;;;;;;;;5053603;28;20574;-54
2021/05/11 03:41:40;;;;;;;5.50;4.70;;;;;;;;;;5053328;28;20453;-54
2021/05/11 03:44:15;;;;;;;8.43;3.90;;;;;;;;;;5053413;28;20397;-54
2021/05/11 03:46:41;;;;;;;3.87;3.67;;;;;;;;;;5053301;28;20436;-54
2021/05/11 03:49:08;;;;;;;4.73;4.43;;;;;;;;;;5053112;28;20885;-55
2021/05/11 03:51:36;;;;;;;4.40;4.10;;;;;;;;;;5053009;28;20463;-54
2021/05/11 03:54:02;;;;;;;4.93;4.53;;;;;;;;;;5053091;28;20510;-54
2021/05/11 03:56:28;;;;;;;4.00;3.80;;;;;;;;;;5053407;28;20421;-54
2021/05/11 03:58:55;;;;;;;4.57;4.27;;;;;;;;;;5052910;28;20423;-54
2021/05/11 04:01:21;;;;;;;4.97;4.67;;;;;;;;;;5053001;28;20978;-54
2021/05/11 04:03:47;;;;;;;4.30;4.10;;;;;;;;;;5053014;28;20458;-54
2021/05/11 04:06:13;;;;;;;4.43;4.13;;;;;;;;;;5053750;28;20506;-54
2021/05/11 04:09:05;;;;;;;4.67;4.37;;;;;;;;;;5052753;28;20408;-54
2021/05/11 04:16:36;;;;;;;4.93;4.53;;;;;;;;;;5052916;28;21017;-54
2021/05/11 04:19:02;;;;;;;5.87;5.30;;;;;;;;;;5053223;28;20393;-54
2021/05/11 04:21:28;;;;;;;5.27;4.70;;;;;;;;;;5052830;28;20953;-55
2021/05/11 04:23:55;;;;;;;4.13;3.93;;;;;;;;;;5053003;28;20397;-55
2021/05/11 04:26:22;;;;;;;4.90;4.60;;;;;;;;;;5052929;28;20749;-54
2021/05/11 04:28:48;;;;;;;4.40;4.10;;;;;;;;;;5052497;28;20372;-54
2021/05/11 04:31:15;;;;;;;4.47;4.17;;;;;;;;;;5052442;28;20405;-54
2021/05/11 04:33:41;;;;;;;5.40;4.17;;;;;;;;;;5052347;28;20766;-54
2021/05/11 04:36:07;;;;;;;4.80;4.50;;;;;;;;;;5052044;28;20397;-54
2021/05/11 04:38:33;;;;;;;4.57;4.27;;;;;;;;;;5051527;28;20412;-54
2021/05/11 04:40:59;;;;;;;4.60;4.30;;;;;;;;;;5052322;28;20401;-54
2021/05/11 04:43:27;;;;;;;4.90;4.50;;;;;;;;;;5052224;28;20975;-55
2021/05/11 04:46:04;;;;;;;4.93;4.53;;;;;;;;;;5052052;28;20373;-54
2021/05/11 04:48:31;;;;;;;5.27;4.83;;;;;;;;;;5052224;28;20425;-55
2021/05/11 04:50:57;;;;;;;5.77;5.17;;;;;;;;;;5052216;28;20381;-54
2021/05/11 04:53:23;;;;;;;5.60;5.07;;;;;;;;;;5051939;28;20397;-55
2021/05/11 04:55:49;;;;;;;6.17;5.67;;;;;;;;;;5051929;28;20805;-54
2021/05/11 04:58:15;;;;;;;4.73;4.40;;;;;;;;;;5050596;28;20375;-54
2021/05/11 05:00:41;;;;;;;5.70;5.20;;;;;;;;;;5051766;28;20386;-54
2021/05/11 05:03:10;;;;;;;6.37;5.73;;;;;;;;;;5051626;28;20464;-54
2021/05/11 05:05:36;;;;;;;6.40;5.90;;;;;;;;;;5051826;28;20405;-54
2021/05/11 05:08:02;;;;;;;8.93;6.03;;;;;;;;;;5052161;28;20417;-54
2021/05/11 05:10:28;;;;;;;6.27;5.77;;;;;;;;;;5051713;28;20694;-54
2021/05/11 05:12:54;;;;;;;6.87;6.10;;;;;;;;;;5051584;28;20387;-54
2021/05/11 05:15:20;;;;;;;6.53;5.93;;;;;;;;;;5051416;28;20402;-54
2021/05/11 05:17:46;;;;;;;11.87;6.73;;;;;;;;;;5051472;28;20428;-55
2021/05/11 05:20:12;;;;;;;9.10;6.47;;;;;;;;;;5051380;28;20433;-54
2021/05/11 05:22:38;;;;;;;7.13;6.43;;;;;;;;;;5051267;28;20453;-54
2021/05/11 05:25:13;;;;;;;7.63;6.90;;;;;;;;;;5051376;28;20398;-54
2021/05/11 05:28:05;;;;;;;14.30;7.60;;;;;;;;;;5051487;28;20899;-54
2021/05/11 05:30:25;;;;;;;7.40;6.80;;;;;;;;;;5050913;28;20436;-54
2021/05/11 05:32:59;;;;;;;7.40;6.80;;;;;;;;;;5051108;28;20412;-54
2021/05/11 05:35:25;;;;;;;7.37;6.77;;;;;;;;;;5051300;28;20489;-54
2021/05/11 05:37:51;;;;;;;7.50;6.80;;;;;;;;;;5051180;28;20519;-54
2021/05/11 05:40:20;;;;;;;7.67;6.93;;;;;;;;;;5051042;28;20409;-53
2021/05/11 05:42:46;;;;;;;7.90;7.20;;;;;;;;;;5050853;28;21049;-54
2021/05/11 05:45:13;;;;;;;8.50;7.60;;;;;;;;;;5051119;28;20880;-54
2021/05/11 05:47:50;;;;;;;7.83;7.13;;;;;;;;;;5050678;28;20855;-54
2021/05/11 05:50:17;;;;;;;9.10;8.30;;;;;;;;;;5051078;28;20483;-54
2021/05/11 05:52:43;;;;;;;9.10;8.10;;;;;;;;;;5050799;28;20452;-54
2021/05/11 05:55:10;;;;;;;8.43;7.60;;;;;;;;;;5051231;28;20796;-54
2021/05/11 05:57:36;;;;;;;7.77;6.97;;;;;;;;;;5050776;28;20395;-54
2021/05/11 06:00:02;;;;;;;10.50;7.73;;;;;;;;;;5050764;28;20404;-53
2021/05/11 06:02:28;;;;;;;11.27;8.60;;;;;;;;;;5050588;28;20483;-54
2021/05/11 06:04:54;;;;;;;9.47;8.30;;;;;;;;;;5050858;28;20871;-54
2021/05/11 06:07:20;;;;;;;12.03;8.03;;;;;;;;;;5050692;28;20632;-54
2021/05/11 06:09:47;;;;;;;10.17;9.23;;;;;;;;;;5050764;28;20397;-54
2021/05/11 06:12:26;;;;;;;9.17;8.37;;;;;;;;;;5050676;28;20666;-55
2021/05/11 06:17:21;;;;;;;10.40;9.30;;;;;;;;;;5050909;28;20722;-54
2021/05/11 06:19:48;;;;;;;10.27;9.27;;;;;;;;;;5050925;28;20531;-54
2021/05/11 06:22:14;;;;;;;9.37;8.47;;;;;;;;;;5050781;28;20455;-54
2021/05/11 06:24:41;;;;;;;9.40;8.43;;;;;;;;;;5050995;28;20384;-54
2021/05/11 06:27:09;;;;;;;8.33;7.53;;;;;;;;;;5050588;28;20472;-54
2021/05/11 06:29:37;;;;;;;9.37;8.17;;;;;;;;;;5050904;28;20488;-54
2021/05/11 06:32:03;;;;;;;8.47;7.70;;;;;;;;;;5050421;28;20380;-54
2021/05/11 06:34:30;;;;;;;8.47;7.67;;;;;;;;;;5050310;28;20397;-54
2021/05/11 06:36:56;;;;;;;8.40;7.60;;;;;;;;;;5050420;28;20427;-54
2021/05/11 06:39:22;;;;;;;9.07;7.87;;;;;;;;;;5050362;28;20436;-54
2021/05/11 06:41:53;;;;;;;9.40;8.40;;;;;;;;;;5050213;28;20452;-55
2021/05/11 06:44:31;;;;;;;9.97;8.80;;;;;;;;;;5050444;28;20692;-54
2021/05/11 06:54:52;;;;;;;12.67;7.93;;;;;;;;;;5050375;28;20428;-55
2021/05/11 06:57:18;;;;;;;12.07;8.00;;;;;;;;;;5050221;28;20448;-54
2021/05/11 06:59:44;;;;;;;9.00;8.10;;;;;;;;;;5050478;28;20722;-54
2021/05/11 07:02:10;;;;;;;10.33;7.83;;;;;;;;;;5053916;28;20427;-54
2021/05/11 07:04:36;;;;;;;8.80;7.90;;;;;;;;;;5054081;28;20368;-54
2021/05/11 07:07:07;;;;;;;9.57;7.87;;;;;;;;;;5054129;28;20443;-54
2021/05/11 07:14:56;;;;;;;8.90;8.00;;;;;;;;;;5054622;28;20433;-55
2021/05/11 07:17:22;;;;;;;11.43;8.00;;;;;;;;;;5053897;28;20898;-54
2021/05/11 07:19:48;;;;;;;8.40;7.60;;;;;;;;;;5053699;28;20964;-54
2021/05/11 07:22:14;;;;;;;11.47;8.70;;;;;;;;;;5053569;28;20423;-55
2021/05/11 07:24:40;;;;;;;10.23;8.40;;;;;;;;;;5053880;28;20372;-54
2021/05/11 07:32:01;;;;;;;10.70;9.60;;;;;;;;;;5053587;28;20379;-54
2021/05/11 07:34:28;;;;;;;10.13;9.17;;;;;;;;;;5053496;28;20433;-55
2021/05/11 07:36:54;;;;;;;10.83;9.70;;;;;;;;;;5053454;28;20399;-55
2021/05/11 07:39:22;;;;;;;10.10;8.37;;;;;;;;;;5053465;28;20376;-55
2021/05/11 07:41:48;;;;;;;10.57;9.20;;;;;;;;;;5053284;28;20427;-55
2021/05/11 07:44:14;;;;;;;11.10;9.00;;;;;;;;;;5053405;28;20411;-54
2021/05/11 07:46:53;;;;;;;10.67;9.40;;;;;;;;;;5053102;28;20556;-55
2021/05/11 08:06:09;;;;;;;11.73;10.20;;;;;;;;;;5054501;28;20420;-55
2021/05/11 08:16:36;;;;;;;12.47;10.87;;;;;;;;;;5053957;28;20754;-53
2021/05/11 08:19:39;;;;;;;15.00;9.73;;;;;;;;;;5053773;28;20397;-53
2021/05/11 08:29:59;;;;;;;11.40;10.30;;;;;;;;;;5053267;28;20931;-53
2021/05/11 08:32:25;;;;;;;10.13;9.13;;;;;;;;;;5053107;28;20401;-54
2021/05/11 08:34:51;;;;;;;11.00;9.93;;;;;;;;;;5052999;28;20904;-54
2021/05/11 08:37:17;;;;;;;11.87;10.63;;;;;;;;;;5052964;28;20923;-54
2021/05/11 08:39:43;;;;;;;11.57;9.20;;;;;;;;;;5052951;28;20401;-54
2021/05/11 08:42:09;;;;;;;16.70;9.77;;;;;;;;;;5050940;28;20453;-54
2021/05/11 08:44:36;;;;;;;10.57;9.20;;;;;;;;;;5052689;28;20412;-54
2021/05/11 08:47:02;;;;;;;10.23;9.23;;;;;;;;;;5052287;28;20433;-54
2021/05/11 08:49:28;;;;;;;9.83;8.80;;;;;;;;;;5052419;28;20425;-54
2021/05/11 08:52:00;;;;;;;11.70;10.50;;;;;;;;;;5052148;28;20493;-54
2021/05/11 09:06:32;;;;;;;9.57;8.40;;;;;;;;;;5052333;28;20432;-54
2021/05/11 09:25:50;;;;;;;8.47;6.60;;;;;;;;;;5050739;28;20409;-54
2021/05/11 09:29:02;;;;;;;7.20;6.57;;;;;;;;;;5056773;28;21014;-54
2021/05/11 10:48:18;;;;;;;10.60;6.53;;;;;;;;;;5054274;28;20439;-54
2021/05/11 10:50:46;;;;;;;9.07;6.30;;;;;;;;;;5054324;28;20397;-54
2021/05/11 10:53:31;;;;;;;6.60;5.07;;;;;;;;;;5054227;28;20419;-54
2021/05/11 10:56:17;;;;;;;3.50;3.30;;;;;;;;;;5054205;28;20782;-54
2021/05/11 10:59:02;;;;;;;4.73;2.77;;;;;;;;;;5054260;28;20376;-54
2021/05/11 11:01:32;;;;;;;2.53;2.33;;;;;;;;;;5053961;28;20397;-54
2021/05/11 11:04:14;;;;;;;3.13;2.80;;;;;;;;;;5053982;28;20888;-54
2021/05/11 11:09:25;;;;;;;6.67;4.80;;;;;;;;;;5054052;28;20849;-54
2021/05/11 11:11:51;;;;;;;5.00;4.17;;;;;;;;;;5054954;28;20448;-53
2021/05/11 11:14:17;;;;;;;5.97;3.63;;;;;;;;;;5054804;28;20406;-53
2021/05/11 11:16:43;;;;;;;5.13;3.53;;;;;;;;;;5054738;28;20399;-54
2021/05/11 11:19:10;;;;;;;4.47;4.07;;;;;;;;;;5054947;28;20887;-54
2021/05/11 11:24:24;;;;;;;9.17;8.37;;;;;;;;;;5054349;28;20413;-54
2021/05/11 11:26:52;;;;;;;12.17;8.93;;;;;;;;;;5055023;28;20391;-55
2021/05/11 11:29:20;;;;;;;11.90;10.70;;;;;;;;;;5054348;28;20882;-54
2021/05/11 11:31:46;;;;;;;12.30;10.50;;;;;;;;;;5054185;28;20382;-53
2021/05/11 11:34:39;;;;;;;11.83;10.63;;;;;;;;;;5054402;28;20759;-53
2021/05/11 11:37:15;;;;;;;14.47;11.90;;;;;;;;;;5053389;28;20425;-54
2021/05/11 11:39:45;;;;;;;12.60;11.40;;;;;;;;;;5054635;28;20413;-54
2021/05/11 11:42:18;;;;;;;13.90;12.30;;;;;;;;;;5054016;28;20427;-54
2021/05/11 11:44:44;;;;;;;12.60;10.73;;;;;;;;;;5054742;28;20372;-54
2021/05/11 11:47:11;;;;;;;13.17;9.87;;;;;;;;;;5053535;28;20445;-53
2021/05/11 11:49:41;;;;;;;16.30;10.43;;;;;;;;;;5054227;28;20410;-54
2021/05/11 11:52:11;;;;;;;13.90;8.50;;;;;;;;;;5053865;28;20372;-55
2021/05/11 11:54:45;;;;;;;9.60;8.10;;;;;;;;;;5053863;28;20403;-54
2021/05/11 12:00:10;;;;;;;11.30;9.00;;;;;;;;;;5053699;28;20878;-54
2021/05/11 12:02:37;;;;;;;9.03;8.13;;;;;;;;;;5053084;28;20435;-54
2021/05/11 12:05:13;;;;;;;7.43;6.60;;;;;;;;;;5053724;28;20734;-54
2021/05/11 12:10:25;;;;;;;11.50;8.33;;;;;;;;;;5053688;28;20748;-54
2021/05/11 12:12:52;;;;;;;6.40;5.80;;;;;;;;;;5053844;28;20397;-53
2021/05/11 12:15:20;;;;;;;6.83;6.13;;;;;;;;;;5054233;28;20430;-53
2021/05/11 12:17:47;;;;;;;10.20;5.90;;;;;;;;;;5054180;28;20425;-53
2021/05/11 12:20:20;;;;;;;5.57;5.13;;;;;;;;;;5053791;28;20394;-54
2021/05/11 12:22:46;;;;;;;5.87;5.37;;;;;;;;;;5052945;28;20428;-53
2021/05/11 12:25:12;;;;;;;6.20;5.70;;;;;;;;;;5053253;28;20388;-53
2021/05/11 12:27:38;;;;;;;5.13;4.80;;;;;;;;;;5053062;28;20479;-53
2021/05/11 12:30:06;;;;;;;5.87;4.60;;;;;;;;;;5052948;28;20364;-53
2021/05/11 12:32:33;;;;;;;5.90;5.50;;;;;;;;;;5052576;28;20413;-54
2021/05/11 12:35:05;;;;;;;5.27;4.83;;;;;;;;;;5052499;28;20384;-53
2021/05/11 12:37:51;;;;;;;6.97;5.90;;;;;;;;;;5052831;28;20911;-53
2021/05/11 12:40:32;;;;;;;5.20;4.67;;;;;;;;;;5052681;28;20417;-53
2021/05/11 12:43:01;;;;;;;7.97;6.17;;;;;;;;;;5052410;28;20452;-53
2021/05/11 12:45:28;;;;;;;6.37;5.87;;;;;;;;;;5052412;28;20436;-54
2021/05/11 12:48:00;;;;;;;7.77;6.97;;;;;;;;;;5052534;28;20441;-53
2021/05/11 12:50:35;;;;;;;7.50;6.80;;;;;;;;;;5052564;28;20413;-54
2021/05/11 12:59:02;;;;;;;6.03;5.60;;;;;;;;;;5053133;28;20430;-54
2021/05/11 13:01:37;;;;;;;6.70;6.10;;;;;;;;;;5044074;28;20376;-54
2021/05/11 13:05:01;;;;;;;6.43;5.93;;;;;;;;;;5052155;28;20393;-53
2021/05/11 13:26:11;;;;;;;8.00;7.40;;;;;;;;;;5052077;28;20819;-54
2021/05/11 13:36:22;;;;;;;10.70;6.93;;;;;;;;;;5051749;28;20755;-54
2021/05/11 13:38:48;;;;;;;8.50;7.50;;;;;;;;;;5051365;28;20428;-54
2021/05/11 13:41:14;;;;;;;8.87;8.10;;;;;;;;;;5051248;28;20381;-54
2021/05/11 13:43:40;;;;;;;8.53;7.73;;;;;;;;;;5051082;28;20459;-53
2021/05/11 13:46:06;;;;;;;10.00;8.53;;;;;;;;;;5051034;28;20421;-55
2021/05/11 13:48:37;;;;;;;10.87;6.97;;;;;;;;;;5051494;28;20417;-53
2021/05/11 13:53:37;;;;;;;8.93;7.10;;;;;;;;;;5051186;28;20387;-54
2021/05/11 13:56:21;;;;;;;8.53;7.83;;;;;;;;;;5051122;28;20395;-54
2021/05/11 14:02:03;;;;;;;7.63;5.13;;;;;;;;;;5050277;28;20413;-54
2021/05/11 14:04:29;;;;;;;7.83;5.33;;;;;;;;;;5050998;28;20380;-53
2021/05/11 14:06:55;;;;;;;5.30;4.87;;;;;;;;;;5050916;28;20392;-54
2021/05/11 14:09:22;;;;;;;4.67;4.20;;;;;;;;;;5031503;28;20903;-54
2021/05/11 14:11:48;;;;;;;4.80;4.40;;;;;;;;;;5030856;28;20381;-54
2021/05/11 14:14:14;;;;;;;5.07;4.57;;;;;;;;;;5031207;28;20861;-54
2021/05/11 14:16:42;;;;;;;5.00;4.60;;;;;;;;;;5031060;28;20509;-54
2021/05/11 14:19:08;;;;;;;5.13;4.73;;;;;;;;;;5031132;28;20568;-54
2021/05/11 14:21:34;;;;;;;6.33;4.33;;;;;;;;;;5030999;28;20864;-54
2021/05/11 14:24:01;;;;;;;6.43;5.77;;;;;;;;;;5030951;28;20402;-54
2021/05/11 14:26:27;;;;;;;9.33;5.10;;;;;;;;;;5031088;28;20565;-54
2021/05/11 14:28:54;;;;;;;5.87;5.23;;;;;;;;;;5031130;28;20402;-54
2021/05/11 14:31:20;;;;;;;7.50;5.00;;;;;;;;;;5031270;28;20430;-53
2021/05/11 14:33:46;;;;;;;5.50;5.00;;;;;;;;;;5030919;28;20373;-53
2021/05/11 14:36:12;;;;;;;4.67;4.27;;;;;;;;;;5031307;28;20418;-54
2021/05/11 14:38:38;;;;;;;6.80;6.20;;;;;;;;;;5031045;28;20399;-54
2021/05/11 14:41:06;;;;;;;5.17;4.77;;;;;;;;;;5030757;28;20369;-54
2021/05/11 14:43:32;;;;;;;6.30;5.70;;;;;;;;;;5030536;28;20429;-53
2021/05/11 14:45:59;;;;;;;6.17;5.43;;;;;;;;;;5030461;28;20923;-53
2021/05/11 14:48:25;;;;;;;7.73;6.50;;;;;;;;;;5030617;28;20381;-54
2021/05/11 14:50:52;;;;;;;5.80;5.30;;;;;;;;;;5030742;28;20805;-54
2021/05/11 14:53:18;;;;;;;5.53;5.13;;;;;;;;;;5030457;28;20413;-54
2021/05/11 14:55:44;;;;;;;5.60;5.10;;;;;;;;;;5030516;28;20425;-54
2021/05/11 14:58:10;;;;;;;5.97;5.50;;;;;;;;;;5030702;28;20897;-54
2021/05/11 15:00:36;;;;;;;6.37;5.87;;;;;;;;;;5030376;28;20460;-54
2021/05/11 15:03:02;;;;;;;5.80;5.30;;;;;;;;;;5030008;28;20438;-54
2021/05/11 15:05:28;;;;;;;4.90;4.50;;;;;;;;;;5030506;28;20992;-54
2021/05/11 15:07:54;;;;;;;6.83;6.17;;;;;;;;;;5030679;28;20805;-53
2021/05/11 15:10:20;;;;;;;6.67;6.07;;;;;;;;;;5030620;28;20477;-54
2021/05/11 15:12:47;;;;;;;5.10;4.70;;;;;;;;;;5030319;28;20787;-54
2021/05/11 15:15:21;;;;;;;9.23;5.33;;;;;;;;;;5030694;28;20861;-54
2021/05/11 15:20:14;;;;;;;6.23;5.70;;;;;;;;;;5030711;28;20410;-54
2021/05/11 15:22:40;;;;;;;6.23;5.63;;;;;;;;;;5033095;28;20893;-54
2021/05/11 15:25:06;;;;;;;6.20;5.70;;;;;;;;;;5034230;28;20940;-54
2021/05/11 15:27:33;;;;;;;7.03;6.30;;;;;;;;;;5034555;28;20509;-54
2021/05/11 15:29:59;;;;;;;8.00;6.40;;;;;;;;;;5033986;28;20865;-54
2021/05/11 15:32:51;;;;;;;6.40;5.80;;;;;;;;;;5033556;28;20409;-54
2021/05/11 15:35:17;;;;;;;6.73;6.13;;;;;;;;;;5034138;28;20380;-54
2021/05/11 15:37:45;;;;;;;8.10;6.20;;;;;;;;;;5033823;28;20418;-54
2021/05/11 15:40:12;;;;;;;8.40;6.77;;;;;;;;;;5033752;28;20439;-54
2021/05/11 15:42:38;;;;;;;7.83;6.60;;;;;;;;;;5033411;28;20449;-53
2021/05/11 15:45:05;;;;;;;7.43;6.73;;;;;;;;;;5033702;28;20472;-53
2021/05/11 15:47:31;;;;;;;6.00;5.50;;;;;;;;;;5033516;28;20954;-54
2021/05/11 15:49:58;;;;;;;7.87;7.07;;;;;;;;;;5033543;28;20398;-53
2021/05/11 15:52:24;;;;;;;6.53;6.13;;;;;;;;;;5033504;28;20450;-54
2021/05/11 15:54:50;;;;;;;6.20;5.30;;;;;;;;;;5033377;28;20734;-53
2021/05/11 15:57:16;;;;;;;6.97;6.13;;;;;;;;;;5033682;28;20780;-55
2021/05/11 15:59:42;;;;;;;6.03;5.53;;;;;;;;;;5033231;28;20510;-54
2021/05/11 16:02:09;;;;;;;7.13;5.87;;;;;;;;;;5033030;28;20452;-54
2021/05/11 16:04:35;;;;;;;6.60;6.20;;;;;;;;;;5033312;28;20406;-54
2021/05/11 16:07:01;;;;;;;5.90;5.40;;;;;;;;;;5033331;28;20399;-54
2021/05/11 16:09:27;;;;;;;7.17;5.97;;;;;;;;;;5033094;28;20857;-54
2021/05/11 16:11:53;;;;;;;7.10;6.50;;;;;;;;;;5033156;28;20414;-54
2021/05/11 16:14:19;;;;;;;10.87;9.47;;;;;;;;;;5033912;28;20381;-54
2021/05/11 16:16:45;;;;;;;17.37;10.20;;;;;;;;;;5032765;28;20441;-54
2021/05/11 16:19:11;;;;;;;13.80;11.10;;;;;;;;;;5032942;28;20407;-55
2021/05/11 16:21:37;;;;;;;21.97;12.97;;;;;;;;;;5032562;28;20802;-54
2021/05/11 16:24:03;;;;;;;16.63;12.13;;;;;;;;;;5032637;28;20432;-54
2021/05/11 16:26:29;;;;;;;21.37;13.77;;;;;;;;;;5032529;28;20437;-54
2021/05/11 16:28:55;;;;;;;18.17;13.70;;;;;;;;;;5032885;28;20422;-54
2021/05/11 16:31:22;;;;;;;20.03;14.17;;;;;;;;;;5032265;28;20395;-54
2021/05/11 16:33:48;;;;;;;20.67;14.97;;;;;;;;;;5032776;28;20416;-54
2021/05/11 16:36:14;;;;;;;15.20;13.57;;;;;;;;;;5032332;28;20422;-55
2021/05/11 16:38:40;;;;;;;16.70;13.07;;;;;;;;;;5032411;28;20410;-54
2021/05/11 16:41:06;;;;;;;14.60;13.10;;;;;;;;;;5032421;28;20406;-54
2021/05/11 16:43:33;;;;;;;15.27;12.13;;;;;;;;;;5032031;28;20432;-54
2021/05/11 16:46:03;;;;;;;20.83;12.73;;;;;;;;;;5032345;28;20478;-54
2021/05/11 16:48:30;;;;;;;14.83;12.33;;;;;;;;;;5032153;28;20830;-54
2021/05/11 16:50:56;;;;;;;17.50;12.23;;;;;;;;;;5032239;28;20769;-55
2021/05/11 16:53:22;;;;;;;16.50;12.27;;;;;;;;;;5031645;28;20826;-54
2021/05/11 16:55:48;;;;;;;14.23;11.90;;;;;;;;;;5032204;28;21002;-54
2021/05/11 16:58:14;;;;;;;15.43;13.50;;;;;;;;;;5032003;28;20437;-54
2021/05/11 17:00:41;;;;;;;14.60;13.10;;;;;;;;;;5032228;28;20442;-54
2021/05/11 17:03:08;;;;;;;16.23;12.67;;;;;;;;;;5031611;28;20436;-55
2021/05/11 17:05:34;;;;;;;17.80;12.53;;;;;;;;;;5032106;28;20774;-54
2021/05/11 17:08:01;;;;;;;19.47;12.80;;;;;;;;;;5031587;28;20455;-54
2021/05/11 17:10:28;;;;;;;15.17;13.57;;;;;;;;;;5032007;28;20398;-54
2021/05/11 17:12:55;;;;;;;15.23;13.70;;;;;;;;;;5031786;28;20877;-54
2021/05/11 17:15:21;;;;;;;14.53;13.00;;;;;;;;;;5031809;28;20455;-55
2021/05/11 17:17:47;;;;;;;23.00;14.73;;;;;;;;;;5031706;28;20418;-54
2021/05/11 17:20:19;;;;;;;14.73;12.50;;;;;;;;;;5031551;28;20411;-54
2021/05/11 17:22:44;;;;;;;17.40;13.33;;;;;;;;;;5031410;28;20461;-55
2021/05/11 17:25:11;;;;;;;15.43;12.90;;;;;;;;;;5031595;28;20746;-55
2021/05/11 17:27:37;;;;;;;18.33;14.40;;;;;;;;;;5031713;28;20418;-55
2021/05/11 17:30:04;;;;;;;18.77;14.23;;;;;;;;;;5031601;28;20412;-54
2021/05/11 17:32:31;;;;;;;15.33;13.70;;;;;;;;;;5031546;28;20897;-55
2021/05/11 17:34:57;;;;;;;15.57;13.97;;;;;;;;;;5031530;28;20489;-54
2021/05/11 17:37:24;;;;;;;16.27;14.57;;;;;;;;;;5031611;28;20459;-54
2021/05/11 17:39:50;;;;;;;20.83;14.50;;;;;;;;;;5031437;28;20412;-54
2021/05/11 17:42:17;;;;;;;19.03;15.93;;;;;;;;;;5031304;28;20469;-55
2021/05/11 17:44:43;;;;;;;19.73;14.90;;;;;;;;;;5030975;28;20464;-55
2021/05/11 17:47:10;;;;;;;16.50;14.80;;;;;;;;;;5031133;28;20492;-54
2021/05/11 17:49:36;;;;;;;18.83;15.13;;;;;;;;;;5031210;28;20781;-54
2021/05/11 17:52:02;;;;;;;18.47;14.80;;;;;;;;;;5030947;28;20380;-54
2021/05/11 17:54:28;;;;;;;27.50;16.10;;;;;;;;;;5031179;28;20461;-54
2021/05/11 17:56:54;;;;;;;25.27;16.67;;;;;;;;;;5030981;28;20816;-55
2021/05/11 17:59:20;;;;;;;21.07;16.83;;;;;;;;;;5031032;28;20418;-54
2021/05/11 18:01:46;;;;;;;18.70;16.70;;;;;;;;;;5030641;28;20475;-54
2021/05/11 18:04:12;;;;;;;25.07;18.80;;;;;;;;;;5030847;28;20909;-54
2021/05/11 18:06:38;;;;;;;24.13;18.13;;;;;;;;;;5030732;28;20389;-55
2021/05/11 18:09:04;;;;;;;26.47;19.63;;;;;;;;;;5030886;28;20763;-55
2021/05/11 18:11:30;;;;;;;28.53;19.30;;;;;;;;;;5030888;28;20491;-54
2021/05/11 18:13:57;;;;;;;29.17;19.90;;;;;;;;;;5030810;28;20403;-54
2021/05/11 18:16:23;;;;;;;29.40;20.63;;;;;;;;;;5030797;28;20456;-54
2021/05/11 18:18:49;;;;;;;34.30;21.90;;;;;;;;;;5030436;28;20864;-55
2021/05/11 18:21:15;;;;;;;32.87;21.40;;;;;;;;;;5030515;28;20439;-54
2021/05/11 18:23:41;;;;;;;32.63;21.70;;;;;;;;;;5030707;28;20809;-54
2021/05/11 18:26:07;;;;;;;35.37;23.10;;;;;;;;;;5030688;28;20379;-54
2021/05/11 18:28:33;;;;;;;37.30;23.20;;;;;;;;;;5030533;28;20465;-54
2021/05/11 18:30:59;;;;;;;30.50;22.70;;;;;;;;;;5030623;28;20923;-54
2021/05/11 18:33:25;;;;;;;36.77;22.10;;;;;;;;;;5030194;28;20407;-54
2021/05/11 18:35:51;;;;;;;33.80;21.80;;;;;;;;;;5030916;28;20398;-54
2021/05/11 18:38:22;;;;;;;32.67;23.17;;;;;;;;;;5030420;28;20827;-54
2021/05/11 18:40:48;;;;;;;44.23;23.70;;;;;;;;;;5030714;28;20878;-54
2021/05/11 18:43:14;;;;;;;31.20;22.80;;;;;;;;;;5030099;28;20463;-55
2021/05/11 18:45:41;;;;;;;35.53;22.13;;;;;;;;;;5030233;28;20369;-54
2021/05/11 18:48:07;;;;;;;33.63;22.40;;;;;;;;;;5030261;28;20438;-54
2021/05/11 18:50:34;;;;;;;35.53;23.93;;;;;;;;;;5030383;28;20402;-54
2021/05/11 18:53:01;;;;;;;43.90;28.07;;;;;;;;;;5030188;28;20448;-54
2021/05/11 18:55:27;;;;;;;35.53;24.87;;;;;;;;;;5030216;28;20377;-54
2021/05/11 18:57:53;;;;;;;32.60;23.67;;;;;;;;;;5033934;28;20913;-55
2021/05/11 19:00:20;;;;;;;35.17;23.80;;;;;;;;;;5034235;28;20385;-54
2021/05/11 19:02:46;;;;;;;39.20;25.53;;;;;;;;;;5034178;28;20464;-55
2021/05/11 19:05:13;;;;;;;34.70;24.40;;;;;;;;;;5050428;28;20401;-54
2021/05/11 19:07:39;;;;;;;32.67;23.57;;;;;;;;;;5054088;28;20421;-54